Portada
METAR-TAF:

METAR-TAF

Aeroports :

Makhatxkalà, Rússia

latitud: 42-49-01N, longitud: 047-39-08E, altitud: 4 m

Observació

L'informe es va fer fa 27 minuts, a les 22:00 UTC
Vent 4 kt del Oest
Temperatura 0°C
Humitat 93%
Pressió 1023 hPa
Visibilitat: 2800 m
Cel cobert a una alçada de 600 ft
boirina

METAR: URML 112200Z 26002MPS 2800 BR OVC006 00/M01 Q1023 R32/01//70 TEMPO 0300 FZFG VV001 RMK QBB180 MT OBSC QFE766/1022

Hora: 01:27 (22:27 UTC)

Pronòstic

L'informe es va fer fa 2 hores i 27 minuts, a les 20:00 UTC
Pronòstic vàlid del 11 a les 21 UTC al 12 a les 06 UTC
Vent 6 kt del Oest/Sud-Oest amb ràfegues de 16 kt
Visibilitat: 3100 m
Núvols disperses a una alçada de 700 ft
boirina
Temporalment
l' 11 a les 21 UTC al 12 a les 03 UTC
Vent 2 kt amb direcció variable
Visibilitat: 0300 m
a una alçada de 100 ft
boira gebradora

TAF: URML 112000Z 1121/1206 24003G08MPS 3100 BR SCT007 TX00/1121Z TNM02/1123Z TEMPO 1121/1203 VRB01MPS 0300 FZFG VV001

Observacions i pronòstics meteorològics de més de 4000 aeroports (METAR i TAF).

Les estacions disponibles són els punts grocs i vermells al mapa.

Posi el ratolí al punt desitjat per veure el nom de l'estació.

Feu clic per veure les observacions i els pronòstics meteorològics.

Per canviar el mapa: feu clic els botons verds amb una creu de color negre per apropar; al botó verd amb un guió per allunyar la imatge; o en les fletxes verdes per a mapes adjacents.


METAR-TAF: